Caneyville, KY (42721)

8:19 PM CDT on October 31, 2014 (GMT -0500)
Eveleigh Road | Change Station
CLOSE
Current Station
Personal Weather Station
Location: Leitchfield, KY
Elevation: 670 ft
Nearby Weather Stations
Active Advisory: Freeze Warning

Elev 670 ft 37.58 °N, 86.34 °W | Updated 7 seconds ago

Overcast
Overcast
39.2 °F
Feels Like 32 °F
N
10.7
Wind Variable Wind from NW
Gusts 14.5 mph

Today
High -- | Low -- °F
--% Chance of Precip.
Yesterday
High -- | Low -- °F
Precip. -- in
7:09 AM 5:48 PM
First Quarter, 61% visible
Pressure 30.15 in
Visibility 10.0 miles
Clouds Few 3900 ft
Overcast 5500 ft
Windchill 32 °F
Dew Point 31 °F
Humidity 73%
Rainfall 0.02 in
Snow Depth Not available.
UV 0 out of 12
Pollen .30 out of 12
Air Quality Not available.
Flu Activity Not available.
METAR KBWG 010053Z AUTO 32010G15KT 10SM FEW039 OVC055 04/M01 A3014 RMK AO2 PK WND 32028/0015 RAB16E43 SLP208 P0000 T00391006

More Conditions Fewer Conditions

Pressure 30.15 in
Visibility 10.0 miles
Clouds Few 3900 ft
Overcast 5500 ft
Windchill 32 °F
Dew Point 31 °F
Humidity 73%
Rainfall 0.02 in
Snow Depth Not available.
UV 0 out of 12
Pollen .30 out of 12
Air Quality Not available.
Flu Activity Not available.
METAR KBWG 010053Z AUTO 32010G15KT 10SM FEW039 OVC055 04/M01 A3014 RMK AO2 PK WND 32028/0015 RAB16E43 SLP208 P0000 T00391006

More Conditions Fewer Conditions

10-Day Weather Forecast

Almanac

Astronomy

Oct. 31, 2014 Rise Set
Actual Time
Civil Twilight
Nautical Twilight
Astronomical Twilight
Moon
Length of Visible Light
Length of Day
Tomorrow will be .
, % of the Moon is Illuminated

Today's Extremes

State Highs State Lows

Community

WunderPhotos

Upload Photos

1,766,798 photos uploaded!

WunderBlogs® & News

Nearby

Air Quality

  Air Quality AQ Index Pollutant
Not available.

Snow Depth

Station Depth Elevation

Earthquake Activity

City Distance Mag. Time & Date
Minimum magnitude displayed is 2.5.

Coastal Water Temperatures

Place Temperature

Nearby Weather Stations